Terminal Aerodrome Forecast
Issued by NWS

Home | Current Version | Previous Version | Text Only | Print | Product List | Glossary On
Versions: 1 2 3 4 5 6 7 8 9 10 11 12 13 14 15 16 17 18 19 20 21 22 23 24 25 26
000
FTUS43 KGLD 251120
TAFMCK
TAF
KMCK 251120Z 2512/2612 14006KT P6SM FEW150 WS020/21030KT
     FM251300 15007KT P6SM SCT150
     FM251900 04006KT P6SM SCT200
     FM252200 05008KT P6SM VCTS FEW050CB BKN200
      TEMPO 2522/2524 30030G45KT 2SM TSRA BR BKN050CB
     FM260200 02011KT P6SM VCTS SCT050CB BKN110
     FM260500 01007KT P6SM VCTS BKN080CB
     FM260600 35008KT P6SM BKN060
     FM260900 32008KT P6SM BKN050=

USA.gov is the U.S. government's official web portal to all federal, state and local government web resources and services.